KSAA/SAA METAR and TAF weather

Enter ICAO airport designator
Station Type Date Time Source
KSAA METAR 2019/06/17 06:35 UTC NOAA

KSAA 170635Z AUTO 00000KT 10SM VCTS OVC100 11/07 A3012 RMK AO2 LTG DSNT N THRU E


Station Type Date Time Source
KSAA Decoded METAR 2019/06/17 06:35 UTC NOAA

Station name not available
Jun 17, 2019 - 02:35 AM EDT / 2019.06.17 0635 UTC
Wind: Calm:0
Visibility: 10 mile(s):0
Sky conditions: overcast
Weather: thunder in the vicinity; Lightning observed
Temperature: 51 F (11 C)
Dew Point: 44 F (7 C)
Relative Humidity: 76%
Pressure (altimeter): 30.12 in. Hg (1019 hPa)
ob: KSAA 170635Z AUTO 00000KT 10SM VCTS OVC100 11/07 A3012 RMK AO2 LTG DSNT N THRU E
cycle: 6

Station Type Date Time Source
KSAA TAF UTC NOAA

Error!

Example: see airport list